• Join FlightAware (Why Join?)
  • Login
  • US Flag 
05:06AM EDT


 

Airport Tracker/Info


-or-


 

Live Flight TrackerFlight Track Log ✈ AWE1262 ✈ 26-Apr-2013 ✈ KPHL - KMHT

Flight Track Log - Related Links

Times and Time Zones

All times are in EDT time to prevent confusion due to time zone crossing. See the AWE1262 flight status page for this flight to view local times or setup timezone preferences in your user account.

Time Position Orientation Groundspeed Altitude Reporting Facility
EDT Latitude Longitude Course Direction KTS MPH feet Rate Location/Type
09:14PM 39.8667 -75.2833 37° Northeast 156 180 1,000  Level Philadelphia TRACON
09:15PM 39.8167 -75.3333 218° Southwest 220 253 2,800 1,980 Climbing Philadelphia TRACON
09:16PM 39.8104 -74.8351 105° East  Level FlightAware Approximate
09:16PM 39.7500 -75.3500 191° South 281 323 5,200  Level Philadelphia TRACON
09:17PM 39.7836 -74.7013 105° East  Level FlightAware Approximate
09:18PM 39.8667 -74.6167 37° Northeast  Level FlightAware Approximate
09:18PM 39.7500 -75.2500 90° East 287 330 8,600  Level Philadelphia TRACON
09:18PM 39.7500 -75.1500 90° East 308 354 10,800 1,260 Climbing Philadelphia TRACON
09:19PM 39.9544 -74.5456 37° Northeast  Level FlightAware Approximate
09:20PM 39.7750 -74.9467 81° East 357 411 12,000  Level New York Center
09:21PM 39.7861 -74.8014 84° East 357 411 12,100 1,440 Climbing New York Center
09:22PM 39.8256 -74.6819 67° East 363 418 14,900 2,520 Climbing New York Center
09:23PM 39.9075 -74.6028 37° Northeast 343 395 17,100 1,980 Climbing New York Center
09:24PM 39.9956 -74.5181 36° Northeast 360 414 19,000 1,920 Climbing New York Center
09:25PM 40.0839 -74.4281 38° Northeast 378 435 21,000 1,860 Climbing New York Center
09:26PM 40.1744 -74.3378 37° Northeast 397 457 22,800 1,740 Climbing New York Center
09:27PM 40.2689 -74.2447 37° Northeast 410 472 24,600 1,560 Climbing New York Center
09:28PM 40.3653 -74.1486 37° Northeast 416 479 26,000 1,380 Climbing New York Center
09:29PM 40.4642 -74.0472 38° Northeast 434 499 27,400 1,440 Climbing New York Center
09:32PM 40.6689 -73.7917 43° Northeast 443 510 30,900 1,380 Climbing Boston Center
09:33PM 40.7814 -73.7831 North 406 467 32,100 1,020 Climbing Boston Center
09:34PM 40.9044 -73.7856 359° North 390 449 33,000 420 Climbing Boston Center
09:35PM 40.9981 -73.7903 358° North 402 463 33,000  Level Boston Center
09:36PM 41.1417 -73.7989 357° North 417 480 33,000  Level Boston Center
09:37PM 41.2625 -73.8042 358° North 424 488 33,000 -720 Level Boston Center
09:38PM 41.3814 -73.8094 358° North 424 488 31,600 -2,220 Descending Boston Center
09:39PM 41.5000 -73.8147 358° North 424 488 28,600 -2,340 Descending Boston Center
09:40PM 41.6167 -73.8203 358° North 419 482 27,000 -840 Descending Boston Center
09:41PM 41.7356 -73.8228 359° North 419 482 27,000  Level Boston Center
09:42PM 41.8375 -73.8222 360° North 419 482 27,000  Level Boston Center
09:43PM 41.9506 -73.7772 16° North 419 482 27,000  Level Boston Center
09:44PM 42.0333 -73.6503 49° Northeast 413 475 27,000  Level Boston Center
09:45PM 42.1203 -73.4981 52° Northeast 445 512 27,000 -420 Level Boston Center
09:46PM 42.1967 -73.3678 52° Northeast 445 512 26,200 -1,440 Descending Boston Center
09:47PM 42.2600 -73.2564 52° Northeast 432 497 24,200 -1,800 Descending Boston Center
09:48PM 42.3400 -73.1114 53° Northeast 427 491 22,600 -2,040 Descending Boston Center
09:49PM 42.4075 -72.9883 53° Northeast 430 495 20,200 -1,800 Descending Boston Center
09:50PM 42.4661 -72.8847 52° Northeast 405 466 19,000 -600 Descending Boston Center
09:51PM 42.5375 -72.7586 52° Northeast 388 447 19,000 -420 Level Boston Center
09:52PM 42.5900 -72.6431 58° Northeast 388 447 18,200 -1,260 Descending Boston Center
09:53PM 42.6339 -72.5164 65° Northeast 378 435 16,500 -1,680 Descending Boston Center
09:54PM 42.6756 -72.3892 66° East 371 427 14,900 -1,740 Descending Boston Center
09:55PM 42.7150 -72.2564 68° East 366 421 13,100 -1,800 Descending Boston Center
09:56PM 42.7583 -72.1233 66° East 356 410 11,400 -1,500 Descending Boston Center
09:57PM 42.7811 -72.0131 74° East 337 388 10,200 -1,140 Descending Boston Center
09:58PM 42.7908 -71.8939 84° East 301 346 9,200 -1,200 Descending Boston Center
09:59PM 42.7903 -71.7950 90° East 281 323 7,800 -1,680 Descending Boston Center
10:00PM 42.7833 -71.6875 95° East 268 308 5,900 -1,800 Descending Boston Center
10:01PM 42.7828 -71.6083 91° East 240 276 4,300 -1,620 Descending Boston Center